Time,TemperatureF,DewpointF,PressureIn,WindDirection,WindDirectionDegrees,WindSpeedMPH,WindSpeedGustMPH,Humidity,HourlyPrecipIn,Conditions,Clouds,dailyrainin,SoftwareType,DateUTC
2013-06-29 00:11:00,70.0,60.0,-100.00,West,280,4.0,5.0,72,-99.99,,,-99.99,,2013-06-29 05:11:00,
2013-06-29 00:21:00,70.0,60.0,-100.00,West,280,4.0,5.0,72,-99.99,,,-99.99,,2013-06-29 05:21:00,
2013-06-29 00:52:00,69.0,60.0,-100.00,WNW,295,4.0,5.0,75,-99.99,,,-99.99,,2013-06-29 05:52:00,
2013-06-29 01:12:00,68.0,60.0,-100.00,WNW,285,5.0,8.0,76,-99.99,,,-99.99,,2013-06-29 06:12:00,
2013-06-29 01:22:00,68.0,60.0,-100.00,WNW,285,5.0,8.0,76,-99.99,,,-99.99,,2013-06-29 06:22:00,
2013-06-29 01:43:00,68.0,61.0,-100.00,WNW,300,4.0,6.0,78,-99.99,,,-99.99,,2013-06-29 06:43:00,
2013-06-29 01:53:00,68.0,61.0,-100.00,WNW,300,4.0,6.0,78,-99.99,,,-99.99,,2013-06-29 06:53:00,
2013-06-29 02:12:00,67.0,61.0,-100.00,WNW,295,4.0,6.0,81,-99.99,,,-99.99,,2013-06-29 07:12:00,
2013-06-29 02:22:00,67.0,61.0,-100.00,WNW,295,4.0,6.0,81,-99.99,,,-99.99,,2013-06-29 07:22:00,
2013-06-29 02:43:00,67.0,61.0,-100.00,WNW,295,4.0,6.0,83,-99.99,,,-99.99,,2013-06-29 07:43:00,
2013-06-29 02:53:00,67.0,61.0,-100.00,WNW,295,4.0,6.0,83,-99.99,,,-99.99,,2013-06-29 07:53:00,
2013-06-29 03:22:00,66.0,61.0,-100.00,WNW,300,4.0,6.0,85,-99.99,,,-99.99,,2013-06-29 08:22:00,
2013-06-29 03:43:00,65.0,61.0,-100.00,WNW,285,4.0,5.0,87,-99.99,,,-99.99,,2013-06-29 08:43:00,
2013-06-29 03:52:00,65.0,61.0,-100.00,WNW,285,4.0,5.0,87,-99.99,,,-99.99,,2013-06-29 08:52:00,
2013-06-29 04:12:00,65.0,61.0,-100.00,WNW,285,5.0,6.0,88,-99.99,,,-99.99,,2013-06-29 09:12:00,
2013-06-29 04:22:00,65.0,61.0,-100.00,WNW,285,5.0,6.0,88,-99.99,,,-99.99,,2013-06-29 09:22:00,
2013-06-29 04:53:00,64.0,61.0,-100.00,WNW,295,2.0,6.0,89,-99.99,,,-99.99,,2013-06-29 09:53:00,
2013-06-29 05:22:00,64.0,61.0,-100.00,WNW,300,5.0,6.0,90,-99.99,,,-99.99,,2013-06-29 10:22:00,
2013-06-29 05:43:00,64.0,62.0,-100.00,WNW,295,4.0,8.0,91,-99.99,,,-99.99,,2013-06-29 10:43:00,
2013-06-29 05:53:00,64.0,62.0,-100.00,WNW,295,4.0,8.0,91,-99.99,,,-99.99,,2013-06-29 10:53:00,
2013-06-29 06:11:00,64.0,62.0,-100.00,NW,320,4.0,6.0,91,-99.99,,,-99.99,,2013-06-29 11:11:00,
2013-06-29 06:23:00,64.0,62.0,-100.00,NW,320,4.0,6.0,91,-99.99,,,-99.99,,2013-06-29 11:23:00,
2013-06-29 06:43:00,64.0,62.0,-100.00,NW,305,4.0,8.0,91,-99.99,,,-99.99,,2013-06-29 11:43:00,
2013-06-29 06:53:00,64.0,62.0,-100.00,NW,305,4.0,8.0,91,-99.99,,,-99.99,,2013-06-29 11:53:00,
2013-06-29 07:12:00,64.0,62.0,-100.00,WNW,300,4.0,8.0,91,-99.99,,,-99.99,,2013-06-29 12:12:00,
2013-06-29 07:22:00,64.0,62.0,-100.00,WNW,300,4.0,8.0,91,-99.99,,,-99.99,,2013-06-29 12:22:00,
2013-06-29 07:53:00,66.0,63.0,-100.00,WNW,300,4.0,8.0,91,-99.99,,,-99.99,,2013-06-29 12:53:00,
2013-06-29 08:23:00,66.0,63.0,-100.00,NW,310,4.0,9.0,91,-99.99,,,-99.99,,2013-06-29 13:23:00,
2013-06-29 08:53:00,67.0,63.0,-100.00,NW,320,5.0,11.0,87,-99.99,,,-99.99,,2013-06-29 13:53:00,
2013-06-29 09:23:00,68.0,63.0,-100.00,NNW,340,7.0,11.0,84,-99.99,,,-99.99,,2013-06-29 14:23:00,
2013-06-29 09:44:00,69.0,63.0,-100.00,NW,315,6.0,11.0,82,-99.99,,,-99.99,,2013-06-29 14:44:00,
2013-06-29 09:53:00,69.0,63.0,-100.00,NW,315,6.0,11.0,82,-99.99,,,-99.99,,2013-06-29 14:53:00,
2013-06-29 10:22:00,71.0,63.0,-100.00,NNW,330,5.0,11.0,78,-99.99,,,-99.99,,2013-06-29 15:22:00,
2013-06-29 10:53:00,71.0,63.0,-100.00,NNW,335,6.0,11.0,74,-99.99,,,-99.99,,2013-06-29 15:53:00,
2013-06-29 11:12:00,72.0,63.0,-100.00,NW,305,6.0,11.0,73,-99.99,,,-99.99,,2013-06-29 16:12:00,
2013-06-29 11:22:00,72.0,63.0,-100.00,NW,305,6.0,11.0,73,-99.99,,,-99.99,,2013-06-29 16:22:00,
2013-06-29 11:33:00,73.0,63.0,-100.00,NNW,330,8.0,11.0,69,-99.99,,,-99.99,,2013-06-29 16:33:00,
2013-06-29 11:43:00,71.0,63.0,-100.00,NW,325,7.0,14.0,76,-99.99,,,-99.99,,2013-06-29 16:43:00,
2013-06-29 11:53:00,71.0,63.0,-100.00,NW,325,7.0,14.0,76,-99.99,,,-99.99,,2013-06-29 16:53:00,
2013-06-29 12:23:00,71.0,64.0,-100.00,NNW,345,8.0,10.0,77,-99.99,,,-99.99,,2013-06-29 17:23:00,
2013-06-29 12:34:00,71.0,64.0,-100.00,NNW,340,7.0,13.0,79,-99.99,,,-99.99,,2013-06-29 17:34:00,
2013-06-29 12:42:00,71.0,62.0,-100.00,NNW,340,8.0,12.0,72,-99.99,,,-99.99,,2013-06-29 17:42:00,
2013-06-29 12:53:00,71.0,62.0,-100.00,NNW,340,8.0,12.0,72,-99.99,,,-99.99,,2013-06-29 17:53:00,
2013-06-29 13:12:00,71.0,62.0,-100.00,North,0,8.0,14.0,73,-99.99,,,-99.99,,2013-06-29 18:12:00,
2013-06-29 13:22:00,71.0,62.0,-100.00,North,0,8.0,14.0,73,-99.99,,,-99.99,,2013-06-29 18:22:00,
2013-06-29 13:43:00,72.0,61.0,-100.00,NNW,345,7.0,12.0,70,-99.99,,,-99.99,,2013-06-29 18:43:00,
2013-06-29 13:53:00,72.0,61.0,-100.00,NNW,345,7.0,12.0,70,-99.99,,,-99.99,,2013-06-29 18:53:00,
2013-06-29 14:22:00,67.0,63.0,-100.00,North,5,5.0,9.0,89,-99.99,,,-99.99,,2013-06-29 19:22:00,
2013-06-29 14:43:00,69.0,65.0,-100.00,North,0,7.0,13.0,86,-99.99,,,-99.99,,2013-06-29 19:43:00,
2013-06-29 14:54:00,69.0,65.0,-100.00,North,0,7.0,13.0,86,-99.99,,,-99.99,,2013-06-29 19:54:00,
2013-06-29 15:11:00,71.0,63.0,-100.00,North,0,10.0,14.0,75,-99.99,,,-99.99,,2013-06-29 20:11:00,
2013-06-29 15:23:00,71.0,63.0,-100.00,North,0,10.0,14.0,75,-99.99,,,-99.99,,2013-06-29 20:23:00,
2013-06-29 15:43:00,73.0,62.0,-100.00,NNE,15,5.0,14.0,69,-99.99,,,-99.99,,2013-06-29 20:43:00,
2013-06-29 15:52:00,73.0,62.0,-100.00,NNE,15,5.0,14.0,69,-99.99,,,-99.99,,2013-06-29 20:52:00,
2013-06-29 16:02:00,72.0,62.0,-100.00,North,0,5.0,14.0,69,-99.99,,,-99.99,,2013-06-29 21:02:00,
2013-06-29 16:11:00,73.0,62.0,-100.00,North,350,8.0,14.0,69,-99.99,,,-99.99,,2013-06-29 21:11:00,
2013-06-29 16:22:00,73.0,62.0,-100.00,North,350,8.0,14.0,69,-99.99,,,-99.99,,2013-06-29 21:22:00,
2013-06-29 16:42:00,74.0,61.0,-100.00,North,350,11.0,14.0,65,-99.99,,,-99.99,,2013-06-29 21:42:00,
2013-06-29 16:52:00,70.0,62.0,-100.00,NE,55,6.0,16.0,76,-99.99,,,-99.99,,2013-06-29 21:52:00,
2013-06-29 17:11:00,70.0,66.0,-100.00,NNE,25,7.0,11.0,86,-99.99,,,-99.99,,2013-06-29 22:11:00,
2013-06-29 17:21:00,70.0,66.0,-100.00,NNE,25,7.0,11.0,86,-99.99,,,-99.99,,2013-06-29 22:21:00,
2013-06-29 17:53:00,73.0,63.0,-100.00,NE,40,7.0,13.0,71,-99.99,,,-99.99,,2013-06-29 22:53:00,
2013-06-29 18:12:00,71.0,60.0,-100.00,NNE,15,10.0,14.0,68,-99.99,,,-99.99,,2013-06-29 23:12:00,
2013-06-29 18:23:00,71.0,60.0,-100.00,NNE,15,10.0,14.0,68,-99.99,,,-99.99,,2013-06-29 23:23:00,
2013-06-29 18:34:00,71.0,60.0,-100.00,NNE,25,9.0,14.0,69,-99.99,,,-99.99,,2013-06-29 23:34:00,
2013-06-29 18:43:00,69.0,60.0,-100.00,NNE,30,9.0,16.0,73,-99.99,,,-99.99,,2013-06-29 23:43:00,
2013-06-29 18:53:00,69.0,60.0,-100.00,NNE,30,9.0,16.0,73,-99.99,,,-99.99,,2013-06-29 23:53:00,
2013-06-29 19:02:00,71.0,61.0,-100.00,NNE,25,10.0,14.0,71,-99.99,,,-99.99,,2013-06-30 00:02:00,
2013-06-29 19:12:00,71.0,61.0,-100.00,NE,40,5.0,16.0,71,-99.99,,,-99.99,,2013-06-30 00:12:00,
2013-06-29 19:22:00,71.0,61.0,-100.00,NE,40,5.0,16.0,71,-99.99,,,-99.99,,2013-06-30 00:22:00,
2013-06-29 19:33:00,71.0,61.0,-100.00,NE,40,5.0,16.0,71,-99.99,,,-99.99,,2013-06-30 00:33:00,
2013-06-29 19:52:00,69.0,60.0,-100.00,North,5,5.0,11.0,74,-99.99,,,-99.99,,2013-06-30 00:52:00,
2013-06-29 20:11:00,69.0,61.0,-100.00,NNE,20,4.0,7.0,78,-99.99,,,-99.99,,2013-06-30 01:11:00,
2013-06-29 20:22:00,69.0,61.0,-100.00,NNE,20,4.0,7.0,78,-99.99,,,-99.99,,2013-06-30 01:22:00,
2013-06-29 20:44:00,68.0,61.0,-100.00,NNE,20,4.0,7.0,78,-99.99,,,-99.99,,2013-06-30 01:44:00,
2013-06-29 20:53:00,68.0,61.0,-100.00,NNE,20,4.0,7.0,78,-99.99,,,-99.99,,2013-06-30 01:53:00,
2013-06-29 21:11:00,68.0,61.0,-100.00,NNE,25,5.0,7.0,78,-99.99,,,-99.99,,2013-06-30 02:11:00,
2013-06-29 21:23:00,68.0,61.0,-100.00,NNE,25,5.0,7.0,78,-99.99,,,-99.99,,2013-06-30 02:23:00,
2013-06-29 21:43:00,67.0,61.0,-100.00,North,0,6.0,9.0,80,-99.99,,,-99.99,,2013-06-30 02:43:00,
2013-06-29 21:53:00,67.0,61.0,-100.00,North,0,6.0,9.0,80,-99.99,,,-99.99,,2013-06-30 02:53:00,
2013-06-29 22:12:00,68.0,58.0,-100.00,North,10,7.0,14.0,71,-99.99,,,-99.99,,2013-06-30 03:12:00,
2013-06-29 22:23:00,68.0,58.0,-100.00,North,10,7.0,14.0,71,-99.99,,,-99.99,,2013-06-30 03:23:00,
2013-06-29 22:43:00,67.0,57.0,-100.00,NNE,25,8.0,11.0,70,-99.99,,,-99.99,,2013-06-30 03:43:00,
2013-06-29 22:53:00,67.0,57.0,-100.00,NNE,25,8.0,11.0,70,-99.99,,,-99.99,,2013-06-30 03:53:00,
2013-06-29 23:12:00,67.0,57.0,-100.00,North,5,4.0,9.0,72,-99.99,,,-99.99,,2013-06-30 04:12:00,
2013-06-29 23:22:00,67.0,57.0,-100.00,North,5,4.0,9.0,72,-99.99,,,-99.99,,2013-06-30 04:22:00,
2013-06-29 23:33:00,66.0,59.0,-100.00,North,350,4.0,6.0,77,-99.99,,,-99.99,,2013-06-30 04:33:00,
2013-06-29 23:43:00,65.0,60.0,-100.00,North,5,5.0,8.0,86,-99.99,,,-99.99,,2013-06-30 04:43:00,
2013-06-29 23:53:00,65.0,60.0,-100.00,North,5,5.0,8.0,86,-99.99,,,-99.99,,2013-06-30 04:53:00,